sensor_id;sensor_type;location;lat;lon;timestamp;temperature;humidity
74171;DHT22;62526;50.948;6.590;2023-09-19T00:00:38;19.70;99.90
74171;DHT22;62526;50.948;6.590;2023-09-19T00:03:04;19.80;99.90
74171;DHT22;62526;50.948;6.590;2023-09-19T00:05:34;19.80;99.90
74171;DHT22;62526;50.948;6.590;2023-09-19T00:07:58;19.80;99.90
74171;DHT22;62526;50.948;6.590;2023-09-19T00:10:25;19.80;99.90
74171;DHT22;62526;50.948;6.590;2023-09-19T00:12:51;19.90;99.90
74171;DHT22;62526;50.948;6.590;2023-09-19T00:15:18;20.00;99.90
74171;DHT22;62526;50.948;6.590;2023-09-19T00:17:44;20.00;99.90
74171;DHT22;62526;50.948;6.590;2023-09-19T00:20:11;20.00;99.90
74171;DHT22;62526;50.948;6.590;2023-09-19T00:22:39;20.10;99.90
74171;DHT22;62526;50.948;6.590;2023-09-19T00:25:05;20.10;99.90
74171;DHT22;62526;50.948;6.590;2023-09-19T00:27:32;20.20;99.90
74171;DHT22;62526;50.948;6.590;2023-09-19T00:29:59;20.30;99.90
74171;DHT22;62526;50.948;6.590;2023-09-19T00:32:26;20.20;99.90
74171;DHT22;62526;50.948;6.590;2023-09-19T00:34:54;20.10;99.90
74171;DHT22;62526;50.948;6.590;2023-09-19T00:37:21;20.00;99.90
74171;DHT22;62526;50.948;6.590;2023-09-19T00:39:47;19.90;99.90
74171;DHT22;62526;50.948;6.590;2023-09-19T00:42:20;20.10;99.90
74171;DHT22;62526;50.948;6.590;2023-09-19T00:44:44;20.10;99.90
74171;DHT22;62526;50.948;6.590;2023-09-19T00:47:11;20.10;99.90
74171;DHT22;62526;50.948;6.590;2023-09-19T00:49:38;20.30;99.90
74171;DHT22;62526;50.948;6.590;2023-09-19T00:52:05;20.40;99.90
74171;DHT22;62526;50.948;6.590;2023-09-19T00:54:37;20.50;99.90
74171;DHT22;62526;50.948;6.590;2023-09-19T00:57:04;20.50;99.50
74171;DHT22;62526;50.948;6.590;2023-09-19T00:59:31;20.00;99.90
74171;DHT22;62526;50.948;6.590;2023-09-19T01:01:57;19.90;99.90
74171;DHT22;62526;50.948;6.590;2023-09-19T01:04:24;19.90;99.90
74171;DHT22;62526;50.948;6.590;2023-09-19T01:06:51;20.00;99.90
74171;DHT22;62526;50.948;6.590;2023-09-19T01:09:17;20.00;99.80
74171;DHT22;62526;50.948;6.590;2023-09-19T01:11:45;19.90;99.90
74171;DHT22;62526;50.948;6.590;2023-09-19T01:14:15;20.10;99.90
74171;DHT22;62526;50.948;6.590;2023-09-19T01:16:42;20.20;99.80
74171;DHT22;62526;50.948;6.590;2023-09-19T01:21:57;19.90;99.40
74171;DHT22;62526;50.948;6.590;2023-09-19T01:24:45;19.90;99.60
74171;DHT22;62526;50.948;6.590;2023-09-19T01:27:17;20.10;99.60
74171;DHT22;62526;50.948;6.590;2023-09-19T01:29:39;19.80;99.10
74171;DHT22;62526;50.948;6.590;2023-09-19T01:32:05;19.90;99.40
74171;DHT22;62526;50.948;6.590;2023-09-19T01:37:09;19.70;98.90
74171;DHT22;62526;50.948;6.590;2023-09-19T01:39:36;19.70;98.80
74171;DHT22;62526;50.948;6.590;2023-09-19T01:42:23;19.70;98.30
74171;DHT22;62526;50.948;6.590;2023-09-19T01:45:05;19.70;98.40
74171;DHT22;62526;50.948;6.590;2023-09-19T01:47:41;19.40;99.00
74171;DHT22;62526;50.948;6.590;2023-09-19T01:50:23;19.40;98.80
74171;DHT22;62526;50.948;6.590;2023-09-19T01:52:48;19.60;97.90
74171;DHT22;62526;50.948;6.590;2023-09-19T01:55:15;19.30;97.80
74171;DHT22;62526;50.948;6.590;2023-09-19T01:57:46;19.40;98.10
74171;DHT22;62526;50.948;6.590;2023-09-19T02:00:09;19.20;98.30
74171;DHT22;62526;50.948;6.590;2023-09-19T02:02:36;19.20;98.50
74171;DHT22;62526;50.948;6.590;2023-09-19T02:05:03;19.30;98.10
74171;DHT22;62526;50.948;6.590;2023-09-19T02:07:31;19.20;98.60
74171;DHT22;62526;50.948;6.590;2023-09-19T02:09:58;19.10;98.00
74171;DHT22;62526;50.948;6.590;2023-09-19T02:12:27;19.00;98.30
74171;DHT22;62526;50.948;6.590;2023-09-19T02:14:53;19.00;98.70
74171;DHT22;62526;50.948;6.590;2023-09-19T02:17:20;18.90;98.70
74171;DHT22;62526;50.948;6.590;2023-09-19T02:19:46;18.90;98.70
74171;DHT22;62526;50.948;6.590;2023-09-19T02:22:13;19.20;98.60
74171;DHT22;62526;50.948;6.590;2023-09-19T02:24:40;19.20;98.40
74171;DHT22;62526;50.948;6.590;2023-09-19T02:27:06;19.10;98.10
74171;DHT22;62526;50.948;6.590;2023-09-19T02:29:33;19.10;98.40
74171;DHT22;62526;50.948;6.590;2023-09-19T02:32:01;18.90;98.20
74171;DHT22;62526;50.948;6.590;2023-09-19T02:34:28;18.80;98.40
74171;DHT22;62526;50.948;6.590;2023-09-19T02:36:54;18.60;97.80
74171;DHT22;62526;50.948;6.590;2023-09-19T02:39:21;18.60;98.10
74171;DHT22;62526;50.948;6.590;2023-09-19T02:41:47;18.80;98.10
74171;DHT22;62526;50.948;6.590;2023-09-19T02:44:14;18.80;98.40
74171;DHT22;62526;50.948;6.590;2023-09-19T02:46:41;18.90;98.40
74171;DHT22;62526;50.948;6.590;2023-09-19T02:49:07;19.00;98.40
74171;DHT22;62526;50.948;6.590;2023-09-19T02:54:23;19.00;98.00
74171;DHT22;62526;50.948;6.590;2023-09-19T02:56:49;19.10;97.90
74171;DHT22;62526;50.948;6.590;2023-09-19T02:59:16;19.00;98.20
74171;DHT22;62526;50.948;6.590;2023-09-19T03:04:35;18.90;98.70
74171;DHT22;62526;50.948;6.590;2023-09-19T03:07:03;18.60;99.00
74171;DHT22;62526;50.948;6.590;2023-09-19T03:09:38;18.60;99.10
74171;DHT22;62526;50.948;6.590;2023-09-19T03:12:05;18.70;98.90
74171;DHT22;62526;50.948;6.590;2023-09-19T03:14:32;18.70;99.10
74171;DHT22;62526;50.948;6.590;2023-09-19T03:17:03;18.70;99.50
74171;DHT22;62526;50.948;6.590;2023-09-19T03:19:30;18.60;99.80
74171;DHT22;62526;50.948;6.590;2023-09-19T03:22:00;18.70;99.10
74171;DHT22;62526;50.948;6.590;2023-09-19T03:24:27;18.50;98.90
74171;DHT22;62526;50.948;6.590;2023-09-19T03:26:54;18.50;99.30
74171;DHT22;62526;50.948;6.590;2023-09-19T03:29:20;18.80;99.10
74171;DHT22;62526;50.948;6.590;2023-09-19T03:31:48;18.90;98.70
74171;DHT22;62526;50.948;6.590;2023-09-19T03:34:14;18.90;99.00
74171;DHT22;62526;50.948;6.590;2023-09-19T03:36:41;18.80;98.70
74171;DHT22;62526;50.948;6.590;2023-09-19T03:39:08;18.80;98.50
74171;DHT22;62526;50.948;6.590;2023-09-19T03:41:34;18.80;98.70
74171;DHT22;62526;50.948;6.590;2023-09-19T03:44:01;18.60;98.50
74171;DHT22;62526;50.948;6.590;2023-09-19T03:46:28;18.70;98.70
74171;DHT22;62526;50.948;6.590;2023-09-19T03:48:55;18.60;98.90
74171;DHT22;62526;50.948;6.590;2023-09-19T03:51:31;18.70;98.60
74171;DHT22;62526;50.948;6.590;2023-09-19T03:53:57;18.60;98.00
74171;DHT22;62526;50.948;6.590;2023-09-19T03:56:24;18.60;98.30
74171;DHT22;62526;50.948;6.590;2023-09-19T03:58:51;18.60;98.50
74171;DHT22;62526;50.948;6.590;2023-09-19T04:01:17;18.60;98.20
74171;DHT22;62526;50.948;6.590;2023-09-19T04:03:44;18.50;98.10
74171;DHT22;62526;50.948;6.590;2023-09-19T04:06:13;18.40;98.30
74171;DHT22;62526;50.948;6.590;2023-09-19T04:08:40;18.20;98.40
74171;DHT22;62526;50.948;6.590;2023-09-19T04:11:07;18.20;98.70
74171;DHT22;62526;50.948;6.590;2023-09-19T04:13:34;18.20;98.50
74171;DHT22;62526;50.948;6.590;2023-09-19T04:16:01;18.30;98.40
74171;DHT22;62526;50.948;6.590;2023-09-19T04:18:27;18.20;98.40
74171;DHT22;62526;50.948;6.590;2023-09-19T04:20:54;18.20;98.70
74171;DHT22;62526;50.948;6.590;2023-09-19T04:23:20;18.50;98.50
74171;DHT22;62526;50.948;6.590;2023-09-19T04:25:47;18.60;98.40
74171;DHT22;62526;50.948;6.590;2023-09-19T04:28:14;18.70;97.80
74171;DHT22;62526;50.948;6.590;2023-09-19T04:30:40;18.70;97.90
74171;DHT22;62526;50.948;6.590;2023-09-19T04:33:07;18.60;97.80
74171;DHT22;62526;50.948;6.590;2023-09-19T04:35:33;18.40;97.80
74171;DHT22;62526;50.948;6.590;2023-09-19T04:38:00;18.40;98.10
74171;DHT22;62526;50.948;6.590;2023-09-19T04:40:27;18.40;98.00
74171;DHT22;62526;50.948;6.590;2023-09-19T04:42:54;18.40;97.80
74171;DHT22;62526;50.948;6.590;2023-09-19T04:45:23;18.40;98.20
74171;DHT22;62526;50.948;6.590;2023-09-19T04:47:50;18.30;98.20
74171;DHT22;62526;50.948;6.590;2023-09-19T04:50:17;18.20;98.20
74171;DHT22;62526;50.948;6.590;2023-09-19T04:52:44;18.20;98.40
74171;DHT22;62526;50.948;6.590;2023-09-19T04:55:11;18.20;98.40
74171;DHT22;62526;50.948;6.590;2023-09-19T04:57:38;18.30;98.40
74171;DHT22;62526;50.948;6.590;2023-09-19T05:00:05;18.30;98.20
74171;DHT22;62526;50.948;6.590;2023-09-19T05:02:32;18.10;98.10
74171;DHT22;62526;50.948;6.590;2023-09-19T05:04:59;18.10;98.50
74171;DHT22;62526;50.948;6.590;2023-09-19T05:07:26;18.10;98.20
74171;DHT22;62526;50.948;6.590;2023-09-19T05:09:52;18.00;98.40
74171;DHT22;62526;50.948;6.590;2023-09-19T05:12:20;18.10;98.70
74171;DHT22;62526;50.948;6.590;2023-09-19T05:14:46;18.20;98.60
74171;DHT22;62526;50.948;6.590;2023-09-19T05:17:13;18.20;98.70
74171;DHT22;62526;50.948;6.590;2023-09-19T05:19:40;18.30;98.20
74171;DHT22;62526;50.948;6.590;2023-09-19T05:22:06;18.30;98.50
74171;DHT22;62526;50.948;6.590;2023-09-19T05:24:33;18.40;98.30
74171;DHT22;62526;50.948;6.590;2023-09-19T05:27:00;18.30;98.40
74171;DHT22;62526;50.948;6.590;2023-09-19T05:29:27;18.40;98.40
74171;DHT22;62526;50.948;6.590;2023-09-19T05:31:54;18.60;98.10
74171;DHT22;62526;50.948;6.590;2023-09-19T05:34:21;18.60;98.00
74171;DHT22;62526;50.948;6.590;2023-09-19T05:36:47;18.60;97.80
74171;DHT22;62526;50.948;6.590;2023-09-19T05:39:14;18.60;98.10
74171;DHT22;62526;50.948;6.590;2023-09-19T05:41:41;18.30;98.20
74171;DHT22;62526;50.948;6.590;2023-09-19T05:44:08;18.30;98.50
74171;DHT22;62526;50.948;6.590;2023-09-19T05:46:34;17.20;97.60
74171;DHT22;62526;50.948;6.590;2023-09-19T05:49:01;18.40;98.40
74171;DHT22;62526;50.948;6.590;2023-09-19T05:51:27;18.50;98.50
74171;DHT22;62526;50.948;6.590;2023-09-19T05:53:54;18.40;98.40
74171;DHT22;62526;50.948;6.590;2023-09-19T05:56:21;18.50;98.10
74171;DHT22;62526;50.948;6.590;2023-09-19T05:58:48;18.50;98.30
74171;DHT22;62526;50.948;6.590;2023-09-19T06:01:15;18.40;98.10
74171;DHT22;62526;50.948;6.590;2023-09-19T06:03:41;18.50;98.20
74171;DHT22;62526;50.948;6.590;2023-09-19T06:06:08;18.50;98.50
74171;DHT22;62526;50.948;6.590;2023-09-19T06:08:35;18.60;98.40
74171;DHT22;62526;50.948;6.590;2023-09-19T06:11:02;18.40;98.40
74171;DHT22;62526;50.948;6.590;2023-09-19T06:13:28;18.40;98.50
74171;DHT22;62526;50.948;6.590;2023-09-19T06:15:55;18.40;98.60
74171;DHT22;62526;50.948;6.590;2023-09-19T06:18:22;18.40;98.80
74171;DHT22;62526;50.948;6.590;2023-09-19T06:20:49;18.30;98.40
74171;DHT22;62526;50.948;6.590;2023-09-19T06:23:16;18.40;98.20
74171;DHT22;62526;50.948;6.590;2023-09-19T06:25:42;18.50;98.30
74171;DHT22;62526;50.948;6.590;2023-09-19T06:28:09;18.20;98.40
74171;DHT22;62526;50.948;6.590;2023-09-19T06:30:39;18.10;98.60
74171;DHT22;62526;50.948;6.590;2023-09-19T06:33:06;18.20;98.60
74171;DHT22;62526;50.948;6.590;2023-09-19T06:35:33;18.20;98.80
74171;DHT22;62526;50.948;6.590;2023-09-19T06:38:02;17.90;99.40
74171;DHT22;62526;50.948;6.590;2023-09-19T06:40:29;17.90;99.60
74171;DHT22;62526;50.948;6.590;2023-09-19T06:42:55;18.40;98.90
74171;DHT22;62526;50.948;6.590;2023-09-19T06:45:22;18.40;98.60
74171;DHT22;62526;50.948;6.590;2023-09-19T06:47:50;18.50;98.60
74171;DHT22;62526;50.948;6.590;2023-09-19T06:50:17;18.50;98.80
74171;DHT22;62526;50.948;6.590;2023-09-19T06:52:44;18.60;98.60
74171;DHT22;62526;50.948;6.590;2023-09-19T06:55:10;18.50;98.20
74171;DHT22;62526;50.948;6.590;2023-09-19T06:57:37;18.60;98.50
74171;DHT22;62526;50.948;6.590;2023-09-19T07:00:05;18.80;97.90
74171;DHT22;62526;50.948;6.590;2023-09-19T07:02:32;18.80;98.10
74171;DHT22;62526;50.948;6.590;2023-09-19T07:04:58;18.70;97.90
74171;DHT22;62526;50.948;6.590;2023-09-19T07:07:25;18.60;97.90
74171;DHT22;62526;50.948;6.590;2023-09-19T07:09:52;18.30;98.00
74171;DHT22;62526;50.948;6.590;2023-09-19T07:12:19;18.50;98.00
74171;DHT22;62526;50.948;6.590;2023-09-19T07:14:45;18.60;98.20
74171;DHT22;62526;50.948;6.590;2023-09-19T07:17:13;18.60;98.40
74171;DHT22;62526;50.948;6.590;2023-09-19T07:19:39;19.00;97.60
74171;DHT22;62526;50.948;6.590;2023-09-19T07:22:06;19.00;97.80
74171;DHT22;62526;50.948;6.590;2023-09-19T07:24:33;18.80;98.10
74171;DHT22;62526;50.948;6.590;2023-09-19T07:26:59;18.90;98.00
74171;DHT22;62526;50.948;6.590;2023-09-19T07:29:26;19.10;97.80
74171;DHT22;62526;50.948;6.590;2023-09-19T07:31:52;19.40;97.80
74171;DHT22;62526;50.948;6.590;2023-09-19T07:34:19;19.30;97.40
74171;DHT22;62526;50.948;6.590;2023-09-19T07:36:46;19.30;97.40
74171;DHT22;62526;50.948;6.590;2023-09-19T07:39:13;19.30;96.90
74171;DHT22;62526;50.948;6.590;2023-09-19T07:41:40;19.30;97.10
74171;DHT22;62526;50.948;6.590;2023-09-19T07:44:06;19.50;96.70
74171;DHT22;62526;50.948;6.590;2023-09-19T07:46:33;19.70;96.30
74171;DHT22;62526;50.948;6.590;2023-09-19T07:49:00;19.50;96.00
74171;DHT22;62526;50.948;6.590;2023-09-19T07:51:26;19.30;96.30
74171;DHT22;62526;50.948;6.590;2023-09-19T07:53:53;19.30;96.70
74171;DHT22;62526;50.948;6.590;2023-09-19T07:56:20;19.10;97.10
74171;DHT22;62526;50.948;6.590;2023-09-19T07:58:46;19.40;96.50
74171;DHT22;62526;50.948;6.590;2023-09-19T08:01:13;19.40;96.80
74171;DHT22;62526;50.948;6.590;2023-09-19T08:03:40;19.50;96.30
74171;DHT22;62526;50.948;6.590;2023-09-19T08:06:07;19.10;95.80
74171;DHT22;62526;50.948;6.590;2023-09-19T08:08:35;19.30;96.20
74171;DHT22;62526;50.948;6.590;2023-09-19T08:11:04;19.50;96.00
74171;DHT22;62526;50.948;6.590;2023-09-19T08:13:31;19.30;95.40
74171;DHT22;62526;50.948;6.590;2023-09-19T08:15:59;19.50;95.60
74171;DHT22;62526;50.948;6.590;2023-09-19T08:18:25;19.20;95.50
74171;DHT22;62526;50.948;6.590;2023-09-19T08:20:52;19.20;95.60
74171;DHT22;62526;50.948;6.590;2023-09-19T08:23:19;19.80;95.40
74171;DHT22;62526;50.948;6.590;2023-09-19T08:25:47;20.20;95.00
74171;DHT22;62526;50.948;6.590;2023-09-19T08:28:17;20.30;95.30
74171;DHT22;62526;50.948;6.590;2023-09-19T08:30:45;20.00;94.20
74171;DHT22;62526;50.948;6.590;2023-09-19T08:33:12;20.10;94.30
74171;DHT22;62526;50.948;6.590;2023-09-19T08:35:39;20.30;94.60
74171;DHT22;62526;50.948;6.590;2023-09-19T08:38:06;20.30;93.90
74171;DHT22;62526;50.948;6.590;2023-09-19T08:40:36;20.40;94.20
74171;DHT22;62526;50.948;6.590;2023-09-19T08:43:00;20.50;93.30
74171;DHT22;62526;50.948;6.590;2023-09-19T08:45:27;20.40;93.40
74171;DHT22;62526;50.948;6.590;2023-09-19T08:50:49;20.70;92.80
74171;DHT22;62526;50.948;6.590;2023-09-19T08:53:19;20.60;93.00
74171;DHT22;62526;50.948;6.590;2023-09-19T08:55:42;20.60;93.40
74171;DHT22;62526;50.948;6.590;2023-09-19T08:58:10;20.90;92.80
74171;DHT22;62526;50.948;6.590;2023-09-19T09:00:36;20.50;92.10
74171;DHT22;62526;50.948;6.590;2023-09-19T09:03:02;20.50;92.40
74171;DHT22;62526;50.948;6.590;2023-09-19T09:05:29;20.50;92.10
74171;DHT22;62526;50.948;6.590;2023-09-19T09:07:56;20.50;92.30
74171;DHT22;62526;50.948;6.590;2023-09-19T09:10:23;20.80;91.70
74171;DHT22;62526;50.948;6.590;2023-09-19T09:12:52;21.00;91.00
74171;DHT22;62526;50.948;6.590;2023-09-19T09:15:19;20.90;91.00
74171;DHT22;62526;50.948;6.590;2023-09-19T09:17:47;21.20;90.60
74171;DHT22;62526;50.948;6.590;2023-09-19T09:20:14;21.20;90.90
74171;DHT22;62526;50.948;6.590;2023-09-19T09:22:51;20.80;90.60
74171;DHT22;62526;50.948;6.590;2023-09-19T09:25:17;20.80;90.50
74171;DHT22;62526;50.948;6.590;2023-09-19T09:27:44;20.70;90.20
74171;DHT22;62526;50.948;6.590;2023-09-19T09:30:10;20.60;90.30
74171;DHT22;62526;50.948;6.590;2023-09-19T09:32:37;20.70;90.60
74171;DHT22;62526;50.948;6.590;2023-09-19T09:35:07;21.20;90.60
74171;DHT22;62526;50.948;6.590;2023-09-19T09:37:32;21.40;90.10
74171;DHT22;62526;50.948;6.590;2023-09-19T09:40:02;21.60;88.90
74171;DHT22;62526;50.948;6.590;2023-09-19T09:42:34;21.20;89.00
74171;DHT22;62526;50.948;6.590;2023-09-19T09:47:42;21.20;90.30
74171;DHT22;62526;50.948;6.590;2023-09-19T09:50:08;21.30;89.70
74171;DHT22;62526;50.948;6.590;2023-09-19T09:52:44;21.20;89.20
74171;DHT22;62526;50.948;6.590;2023-09-19T09:55:02;21.10;88.80
74171;DHT22;62526;50.948;6.590;2023-09-19T09:57:31;21.00;89.30
74171;DHT22;62526;50.948;6.590;2023-09-19T09:59:59;21.20;89.50
74171;DHT22;62526;50.948;6.590;2023-09-19T10:02:28;21.10;88.70
74171;DHT22;62526;50.948;6.590;2023-09-19T10:04:56;21.40;87.50
74171;DHT22;62526;50.948;6.590;2023-09-19T10:07:29;21.40;87.10
74171;DHT22;62526;50.948;6.590;2023-09-19T10:09:56;21.50;88.20
74171;DHT22;62526;50.948;6.590;2023-09-19T10:12:22;21.80;87.00
74171;DHT22;62526;50.948;6.590;2023-09-19T10:14:49;21.80;87.30
74171;DHT22;62526;50.948;6.590;2023-09-19T10:17:16;22.10;86.00
74171;DHT22;62526;50.948;6.590;2023-09-19T10:19:45;22.10;86.00
74171;DHT22;62526;50.948;6.590;2023-09-19T10:22:10;22.30;85.50
74171;DHT22;62526;50.948;6.590;2023-09-19T10:24:37;22.30;84.10
74171;DHT22;62526;50.948;6.590;2023-09-19T10:27:04;22.20;84.60
74171;DHT22;62526;50.948;6.590;2023-09-19T10:29:32;21.80;84.70
74171;DHT22;62526;50.948;6.590;2023-09-19T10:31:59;21.80;85.30
74171;DHT22;62526;50.948;6.590;2023-09-19T10:34:25;22.00;85.50
74171;DHT22;62526;50.948;6.590;2023-09-19T10:36:52;22.50;83.80
74171;DHT22;62526;50.948;6.590;2023-09-19T10:39:18;22.50;84.50
74171;DHT22;62526;50.948;6.590;2023-09-19T10:41:50;22.20;84.30
74171;DHT22;62526;50.948;6.590;2023-09-19T10:44:16;22.20;84.50
74171;DHT22;62526;50.948;6.590;2023-09-19T10:46:43;21.80;83.60
74171;DHT22;62526;50.948;6.590;2023-09-19T10:49:10;21.80;84.10
74171;DHT22;62526;50.948;6.590;2023-09-19T10:51:39;21.90;85.00
74171;DHT22;62526;50.948;6.590;2023-09-19T10:54:08;21.70;82.90
74171;DHT22;62526;50.948;6.590;2023-09-19T10:56:35;21.70;83.50
74171;DHT22;62526;50.948;6.590;2023-09-19T10:59:06;21.80;82.30
74171;DHT22;62526;50.948;6.590;2023-09-19T11:01:42;22.00;80.50
74171;DHT22;62526;50.948;6.590;2023-09-19T11:06:59;22.10;80.60
74171;DHT22;62526;50.948;6.590;2023-09-19T11:09:13;22.10;81.30
74171;DHT22;62526;50.948;6.590;2023-09-19T11:11:47;22.40;79.80
74171;DHT22;62526;50.948;6.590;2023-09-19T11:17:35;22.50;80.20
74171;DHT22;62526;50.948;6.590;2023-09-19T11:20:20;22.40;77.20
74171;DHT22;62526;50.948;6.590;2023-09-19T11:23:17;22.40;78.00
74171;DHT22;62526;50.948;6.590;2023-09-19T11:25:44;22.40;76.70
74171;DHT22;62526;50.948;6.590;2023-09-19T11:28:28;22.40;77.30
74171;DHT22;62526;50.948;6.590;2023-09-19T11:30:54;22.20;76.30
74171;DHT22;62526;50.948;6.590;2023-09-19T11:33:25;22.50;77.40
74171;DHT22;62526;50.948;6.590;2023-09-19T11:36:01;22.40;77.60
74171;DHT22;62526;50.948;6.590;2023-09-19T11:44:32;22.80;76.30
74171;DHT22;62526;50.948;6.590;2023-09-19T11:46:59;22.80;75.90
74171;DHT22;62526;50.948;6.590;2023-09-19T11:49:30;23.00;76.00
74171;DHT22;62526;50.948;6.590;2023-09-19T11:51:57;23.00;76.60
74171;DHT22;62526;50.948;6.590;2023-09-19T11:54:23;23.50;74.70
74171;DHT22;62526;50.948;6.590;2023-09-19T11:56:51;23.30;73.70
74171;DHT22;62526;50.948;6.590;2023-09-19T11:59:21;23.20;74.50
74171;DHT22;62526;50.948;6.590;2023-09-19T12:01:51;23.50;73.50
74171;DHT22;62526;50.948;6.590;2023-09-19T12:04:17;23.50;73.40
74171;DHT22;62526;50.948;6.590;2023-09-19T12:06:44;23.50;75.50
74171;DHT22;62526;50.948;6.590;2023-09-19T12:09:13;23.40;74.20
74171;DHT22;62526;50.948;6.590;2023-09-19T12:11:41;23.70;73.30
74171;DHT22;62526;50.948;6.590;2023-09-19T12:14:05;23.50;73.90
74171;DHT22;62526;50.948;6.590;2023-09-19T12:16:32;23.70;72.60
74171;DHT22;62526;50.948;6.590;2023-09-19T12:19:00;23.90;72.70
74171;DHT22;62526;50.948;6.590;2023-09-19T12:21:29;24.00;72.10
74171;DHT22;62526;50.948;6.590;2023-09-19T12:24:04;23.70;71.30
74171;DHT22;62526;50.948;6.590;2023-09-19T12:26:37;23.70;72.50
74171;DHT22;62526;50.948;6.590;2023-09-19T12:28:57;24.00;71.10
74171;DHT22;62526;50.948;6.590;2023-09-19T12:31:24;24.00;71.80
74171;DHT22;62526;50.948;6.590;2023-09-19T12:33:54;23.70;70.10
74171;DHT22;62526;50.948;6.590;2023-09-19T12:36:21;23.90;71.50
74171;DHT22;62526;50.948;6.590;2023-09-19T12:38:48;24.30;69.40
74171;DHT22;62526;50.948;6.590;2023-09-19T12:41:14;24.30;70.50
74171;DHT22;62526;50.948;6.590;2023-09-19T12:43:41;24.00;67.90
74171;DHT22;62526;50.948;6.590;2023-09-19T12:46:08;24.00;68.80
74171;DHT22;62526;50.948;6.590;2023-09-19T12:48:34;24.10;67.90
74171;DHT22;62526;50.948;6.590;2023-09-19T12:51:06;24.10;68.50
74171;DHT22;62526;50.948;6.590;2023-09-19T12:53:33;24.40;68.60
74171;DHT22;62526;50.948;6.590;2023-09-19T12:56:01;24.20;67.90
74171;DHT22;62526;50.948;6.590;2023-09-19T12:58:28;24.20;68.70
74171;DHT22;62526;50.948;6.590;2023-09-19T13:00:54;25.00;67.90
74171;DHT22;62526;50.948;6.590;2023-09-19T13:03:28;25.10;68.80
74171;DHT22;62526;50.948;6.590;2023-09-19T13:05:56;25.60;66.00
74171;DHT22;62526;50.948;6.590;2023-09-19T13:08:25;25.00;67.80
74171;DHT22;62526;50.948;6.590;2023-09-19T13:13:33;25.20;67.50
74171;DHT22;62526;50.948;6.590;2023-09-19T13:16:00;25.20;67.70
74171;DHT22;62526;50.948;6.590;2023-09-19T13:18:26;25.30;67.60
74171;DHT22;62526;50.948;6.590;2023-09-19T13:21:11;25.60;67.10
74171;DHT22;62526;50.948;6.590;2023-09-19T13:23:37;26.00;65.00
74171;DHT22;62526;50.948;6.590;2023-09-19T13:26:04;26.00;65.60
74171;DHT22;62526;50.948;6.590;2023-09-19T13:28:33;25.20;67.80
74171;DHT22;62526;50.948;6.590;2023-09-19T13:30:58;25.20;68.30
74171;DHT22;62526;50.948;6.590;2023-09-19T13:33:25;25.30;65.80
74171;DHT22;62526;50.948;6.590;2023-09-19T13:35:52;25.30;66.70
74171;DHT22;62526;50.948;6.590;2023-09-19T13:38:18;24.80;68.00
74171;DHT22;62526;50.948;6.590;2023-09-19T13:40:45;25.30;68.00
74171;DHT22;62526;50.948;6.590;2023-09-19T13:43:11;25.70;67.10
74171;DHT22;62526;50.948;6.590;2023-09-19T13:45:38;24.30;68.80
74171;DHT22;62526;50.948;6.590;2023-09-19T13:48:05;23.90;70.80
74171;DHT22;62526;50.948;6.590;2023-09-19T13:50:32;23.50;71.10
74171;DHT22;62526;50.948;6.590;2023-09-19T13:52:58;23.50;71.70
74171;DHT22;62526;50.948;6.590;2023-09-19T13:55:26;23.90;72.50
74171;DHT22;62526;50.948;6.590;2023-09-19T13:57:53;24.10;71.20
74171;DHT22;62526;50.948;6.590;2023-09-19T14:00:22;24.00;71.70
74171;DHT22;62526;50.948;6.590;2023-09-19T14:02:49;23.40;72.40
74171;DHT22;62526;50.948;6.590;2023-09-19T14:05:15;23.40;72.90
74171;DHT22;62526;50.948;6.590;2023-09-19T14:07:42;23.10;74.40
74171;DHT22;62526;50.948;6.590;2023-09-19T14:10:10;23.10;73.60
74171;DHT22;62526;50.948;6.590;2023-09-19T14:12:36;22.90;74.20
74171;DHT22;62526;50.948;6.590;2023-09-19T14:15:04;22.80;74.80
74171;DHT22;62526;50.948;6.590;2023-09-19T14:17:30;22.50;75.20
74171;DHT22;62526;50.948;6.590;2023-09-19T14:19:57;22.70;75.30
74171;DHT22;62526;50.948;6.590;2023-09-19T14:22:24;23.80;73.00
74171;DHT22;62526;50.948;6.590;2023-09-19T14:24:50;23.80;73.60
74171;DHT22;62526;50.948;6.590;2023-09-19T14:27:17;25.10;69.10
74171;DHT22;62526;50.948;6.590;2023-09-19T14:29:44;25.10;69.50
74171;DHT22;62526;50.948;6.590;2023-09-19T14:32:10;25.60;68.70
74171;DHT22;62526;50.948;6.590;2023-09-19T14:34:37;25.60;67.80
74171;DHT22;62526;50.948;6.590;2023-09-19T14:37:03;25.50;67.80
74171;DHT22;62526;50.948;6.590;2023-09-19T14:39:30;25.60;68.50
74171;DHT22;62526;50.948;6.590;2023-09-19T14:41:57;25.50;68.00
74171;DHT22;62526;50.948;6.590;2023-09-19T14:44:23;25.30;67.60
74171;DHT22;62526;50.948;6.590;2023-09-19T14:46:50;24.30;68.60
74171;DHT22;62526;50.948;6.590;2023-09-19T14:49:17;24.20;69.10
74171;DHT22;62526;50.948;6.590;2023-09-19T14:51:43;23.70;71.80
74171;DHT22;62526;50.948;6.590;2023-09-19T14:54:11;23.80;72.00
74171;DHT22;62526;50.948;6.590;2023-09-19T14:56:37;23.80;71.50
74171;DHT22;62526;50.948;6.590;2023-09-19T14:59:04;23.60;72.00
74171;DHT22;62526;50.948;6.590;2023-09-19T15:01:31;23.70;72.10
74171;DHT22;62526;50.948;6.590;2023-09-19T15:03:58;23.20;72.20
74171;DHT22;62526;50.948;6.590;2023-09-19T15:06:25;23.00;73.80
74171;DHT22;62526;50.948;6.590;2023-09-19T15:08:53;23.00;73.80
74171;DHT22;62526;50.948;6.590;2023-09-19T15:11:19;22.80;74.30
74171;DHT22;62526;50.948;6.590;2023-09-19T15:13:48;22.70;74.50
74171;DHT22;62526;50.948;6.590;2023-09-19T15:16:15;22.80;74.60
74171;DHT22;62526;50.948;6.590;2023-09-19T15:18:44;22.70;73.70
74171;DHT22;62526;50.948;6.590;2023-09-19T15:21:11;22.60;75.20
74171;DHT22;62526;50.948;6.590;2023-09-19T15:23:38;22.80;75.00
74171;DHT22;62526;50.948;6.590;2023-09-19T15:26:05;22.60;74.30
74171;DHT22;62526;50.948;6.590;2023-09-19T15:28:32;22.60;74.90
74171;DHT22;62526;50.948;6.590;2023-09-19T15:31:03;22.70;74.60
74171;DHT22;62526;50.948;6.590;2023-09-19T15:33:30;22.80;74.60
74171;DHT22;62526;50.948;6.590;2023-09-19T15:36:04;22.70;75.10
74171;DHT22;62526;50.948;6.590;2023-09-19T15:38:31;22.70;74.60
74171;DHT22;62526;50.948;6.590;2023-09-19T15:40:58;22.70;75.30
74171;DHT22;62526;50.948;6.590;2023-09-19T15:43:24;22.70;75.90
74171;DHT22;62526;50.948;6.590;2023-09-19T15:45:52;22.70;76.30
74171;DHT22;62526;50.948;6.590;2023-09-19T15:48:18;23.40;74.40
74171;DHT22;62526;50.948;6.590;2023-09-19T15:50:46;23.80;73.80
74171;DHT22;62526;50.948;6.590;2023-09-19T15:53:12;23.50;73.70
74171;DHT22;62526;50.948;6.590;2023-09-19T15:55:39;23.40;74.70
74171;DHT22;62526;50.948;6.590;2023-09-19T15:58:06;23.40;75.10
74171;DHT22;62526;50.948;6.590;2023-09-19T16:00:32;23.20;74.60
74171;DHT22;62526;50.948;6.590;2023-09-19T16:03:01;23.10;75.20